Portada
METAR-TAF:

METAR-TAF

Aeroports :

Cajamarca, Perú

latitud: 07-08S, longitud: 078-28W, altitud: 2620 m

Observació

L'informe es va fer fa 6 minuts, a les 22:30 UTC
Vent 6 kt del Nord-Est, variant entre Nord/Nord-Oest i Est/Nord-Est
Temperatura 14°C
Humitat 82%
Pressió 1026 hPa
Visibilitat 10 km o més
Núvols disperses a una alçada de 2500 ft
Cel ennuvolat a una alçada de 4300 ft
xàfecs en les proximitats

METAR: SPJR 252230Z 04006KT 330V070 9999 VCSH SCT025 BKN043 14/11 Q1026

Hora: 17:36 (22:36 UTC)

Pronòstic

L'informe es va fer fa 5 hores i 36 minuts, a les 17:00 UTC
Pronòstic vàlid del 25 a les 18 UTC al 26 a les 18 UTC
Vent 7 kt del Sud/Sud-Est
Visibilitat 10 km o més
Escasses núvols a una alçada de 3000 ft
Núvols disperses a una alçada de 4500 ft
Temporalment
l' 25 a les 20 UTC al 25 a les 23 UTC
Núvols disperses a una alçada de 2500 ft
Cel ennuvolat a una alçada de 4500 ft

TAF: SPJR 251700Z 2518/2618 15007KT 9999 FEW030 SCT045 TX24/2519Z TN05/2611Z TEMPO 2520/2523 SCT025 BKN045

Observacions i pronòstics meteorològics de més de 4000 aeroports (METAR i TAF).

Les estacions disponibles són els punts grocs i vermells al mapa.

Posi el ratolí al punt desitjat per veure el nom de l'estació.

Feu clic per veure les observacions i els pronòstics meteorològics.

Per canviar el mapa: feu clic els botons verds amb una creu de color negre per apropar; al botó verd amb un guió per allunyar la imatge; o en les fletxes verdes per a mapes adjacents.


METAR-TAF: